createdAt,value
2018-08-09T00:02:27.839Z,54.4
2018-08-09T00:07:28.252Z,54.4
2018-08-09T00:12:28.102Z,54.6
2018-08-09T00:17:27.631Z,54.5
2018-08-09T00:22:28.104Z,54.5
2018-08-09T00:27:28.070Z,54.5
2018-08-09T00:32:27.404Z,54.5
2018-08-09T00:37:27.680Z,54.4
2018-08-09T00:42:27.259Z,54.6
2018-08-09T00:47:28.374Z,54.6
2018-08-09T00:52:27.833Z,54.6
2018-08-09T00:57:27.896Z,54.6
2018-08-09T01:02:28.185Z,54.6
2018-08-09T01:07:27.416Z,54.6
2018-08-09T01:12:27.552Z,54.6
2018-08-09T01:17:28.582Z,54.7
2018-08-09T01:22:27.950Z,54.9
2018-08-09T01:27:27.075Z,54.8
2018-08-09T01:32:28.753Z,54.9
2018-08-09T01:37:27.898Z,55.1
2018-08-09T01:42:27.177Z,55.0
2018-08-09T01:47:27.346Z,54.9
2018-08-09T01:52:27.314Z,54.9
2018-08-09T01:57:27.404Z,54.8
2018-08-09T02:02:27.759Z,54.8
2018-08-09T02:07:28.282Z,54.8
2018-08-09T02:12:28.042Z,55.0
2018-08-09T02:17:27.890Z,54.8
2018-08-09T02:22:27.789Z,54.9
2018-08-09T02:27:27.862Z,54.9
2018-08-09T02:32:27.281Z,55.0
2018-08-09T02:37:28.222Z,55.2
2018-08-09T02:42:28.009Z,55.3
2018-08-09T02:47:28.686Z,55.3
2018-08-09T02:52:29.469Z,55.1
2018-08-09T02:57:27.061Z,55.2
2018-08-09T03:02:28.276Z,55.1
2018-08-09T03:07:28.052Z,54.9
2018-08-09T03:12:27.944Z,55.0
2018-08-09T03:17:27.504Z,54.8
2018-08-09T03:22:28.313Z,54.8
2018-08-09T03:27:27.539Z,55.1
2018-08-09T03:32:27.742Z,55.1
2018-08-09T03:37:27.812Z,55.1
2018-08-09T03:42:27.747Z,55.0
2018-08-09T03:47:28.446Z,55.0
2018-08-09T03:52:28.214Z,55.1
2018-08-09T03:57:28.074Z,54.8
2018-08-09T04:02:28.052Z,55.0
2018-08-09T04:07:28.001Z,54.9
2018-08-09T04:12:28.390Z,55.2
2018-08-09T04:17:28.766Z,55.1
2018-08-09T04:22:28.527Z,55.1
2018-08-09T04:27:28.939Z,55.3
2018-08-09T04:32:28.512Z,55.3
2018-08-09T04:37:28.094Z,55.4
2018-08-09T04:42:29.321Z,55.2
2018-08-09T04:47:28.158Z,55.0
2018-08-09T04:52:27.641Z,55.1
2018-08-09T04:57:28.814Z,55.1
2018-08-09T05:02:28.711Z,51.9
2018-08-09T05:07:28.630Z,55.2
2018-08-09T05:12:28.588Z,55.2
2018-08-09T05:17:28.493Z,55.3
2018-08-09T05:22:28.344Z,55.2
2018-08-09T05:27:27.825Z,55.2
2018-08-09T05:32:28.804Z,55.1
2018-08-09T05:37:28.162Z,54.7
2018-08-09T05:42:27.878Z,54.7
2018-08-09T05:47:27.787Z,54.5
2018-08-09T05:52:28.185Z,54.3
2018-08-09T05:57:28.109Z,54.3
2018-08-09T06:02:27.782Z,54.2
2018-08-09T06:07:28.960Z,54.2
2018-08-09T06:12:27.701Z,54.2
2018-08-09T06:17:28.749Z,54.3
2018-08-09T06:22:27.763Z,54.1
2018-08-09T06:27:28.178Z,54.0
2018-08-09T06:32:29.226Z,53.7
2018-08-09T06:37:28.001Z,53.6
2018-08-09T06:42:28.386Z,53.6
2018-08-09T06:47:28.497Z,54.4
2018-08-09T06:52:27.552Z,54.3
2018-08-09T06:57:28.874Z,54.2
2018-08-09T07:02:28.143Z,54.2
2018-08-09T07:07:29.734Z,54.1
2018-08-09T07:12:28.189Z,54.1
2018-08-09T07:17:28.144Z,54.5
2018-08-09T07:22:28.767Z,54.6
2018-08-09T07:27:28.205Z,54.6
2018-08-09T07:32:28.642Z,55.5
2018-08-09T07:37:28.491Z,55.4
2018-08-09T07:42:27.757Z,55.1
2018-08-09T07:47:29.674Z,54.5
2018-08-09T07:52:28.282Z,54.9
2018-08-09T07:57:27.797Z,55.2
2018-08-09T08:02:29.296Z,55.2
2018-08-09T08:07:27.782Z,55.7
2018-08-09T08:12:27.863Z,55.6
2018-08-09T08:17:29.281Z,55.6
2018-08-09T08:22:28.435Z,55.6
2018-08-09T08:27:28.640Z,55.7
2018-08-09T08:32:28.749Z,55.8
2018-08-09T08:37:28.441Z,55.5
2018-08-09T08:42:27.580Z,55.6
2018-08-09T08:47:28.789Z,55.8
2018-08-09T08:52:27.837Z,55.9
2018-08-09T08:57:28.631Z,55.6
2018-08-09T09:02:28.555Z,56.1
2018-08-09T09:07:28.185Z,55.9
2018-08-09T09:12:28.602Z,56.3
2018-08-09T09:17:28.246Z,56.1
2018-08-09T09:22:27.881Z,56.1
2018-08-09T09:27:28.049Z,56.1
2018-08-09T09:32:28.612Z,56.2
2018-08-09T09:37:29.961Z,56.2
2018-08-09T09:42:27.901Z,56.3
2018-08-09T09:47:28.478Z,56.4
2018-08-09T09:52:28.304Z,56.4
2018-08-09T09:57:28.515Z,56.4
2018-08-09T10:02:28.343Z,56.3
2018-08-09T10:07:28.583Z,56.8
2018-08-09T10:12:28.497Z,56.4
2018-08-09T10:17:28.770Z,56.2
2018-08-09T10:22:27.838Z,56.6
2018-08-09T10:27:28.181Z,56.6
2018-08-09T10:32:28.535Z,56.4
2018-08-09T10:37:29.598Z,56.3
2018-08-09T10:42:29.135Z,56.7
2018-08-09T10:47:28.649Z,56.7
2018-08-09T10:52:28.673Z,56.8
2018-08-09T10:57:29.064Z,56.8
2018-08-09T11:02:28.379Z,56.4
2018-08-09T11:07:28.236Z,56.5
2018-08-09T11:12:29.751Z,56.3
2018-08-09T11:17:28.787Z,56.3
2018-08-09T11:22:28.912Z,56.3
2018-08-09T11:27:28.382Z,56.2
2018-08-09T11:32:28.170Z,56.1
2018-08-09T11:37:28.025Z,55.5
2018-08-09T11:42:27.936Z,55.6
2018-08-09T11:47:28.330Z,55.6
2018-08-09T11:52:28.922Z,55.2
2018-08-09T11:57:29.044Z,54.6
2018-08-09T12:02:27.977Z,54.7
2018-08-09T12:07:28.773Z,54.4
2018-08-09T12:12:27.751Z,54.2
2018-08-09T12:17:28.050Z,54.4
2018-08-09T12:22:27.924Z,54.4
2018-08-09T12:27:27.836Z,54.2
2018-08-09T12:32:28.482Z,54.2
2018-08-09T12:37:29.060Z,53.9
2018-08-09T12:42:28.730Z,54.0
2018-08-09T12:47:28.401Z,53.8
2018-08-09T12:52:27.977Z,53.6
2018-08-09T12:57:28.460Z,53.9
2018-08-09T13:02:28.247Z,50.1
2018-08-09T13:07:28.257Z,51.9
2018-08-09T13:12:27.867Z,68.8
2018-08-09T13:17:27.960Z,68.8
2018-08-09T13:22:28.643Z,74.7
2018-08-09T13:27:27.981Z,77.2
2018-08-09T13:32:27.893Z,78.1
2018-08-09T13:37:28.285Z,79.9
2018-08-09T13:42:28.272Z,80.5
2018-08-09T13:47:28.109Z,80.5
2018-08-09T13:52:28.957Z,81.2
2018-08-09T13:57:28.934Z,82.0
2018-08-09T14:02:28.282Z,81.6
2018-08-09T14:07:27.996Z,81.2
2018-08-09T14:12:28.835Z,80.5
2018-08-09T14:17:29.175Z,80.3
2018-08-09T14:22:28.410Z,80.4
2018-08-09T14:27:28.251Z,81.4
2018-08-09T14:32:28.101Z,81.4
2018-08-09T14:37:27.939Z,81.9
2018-08-09T14:42:28.373Z,82.6
2018-08-09T14:47:28.201Z,82.2
2018-08-09T14:52:28.544Z,82.2
2018-08-09T14:57:28.751Z,81.9
2018-08-09T15:02:30.390Z,81.8
2018-08-09T15:07:28.290Z,82.2
2018-08-09T15:12:29.015Z,80.4
2018-08-09T15:17:29.009Z,61.2
2018-08-09T15:22:28.326Z,61.2
2018-08-09T15:27:28.222Z,59.7
2018-08-09T15:32:27.983Z,60.2
2018-08-09T15:37:28.918Z,60.7
2018-08-09T15:42:29.186Z,60.9
2018-08-09T15:47:29.492Z,61.6
2018-08-09T15:52:28.560Z,61.7
2018-08-09T15:57:28.354Z,61.5
2018-08-09T16:02:29.059Z,62.2
2018-08-09T16:07:28.777Z,61.6
2018-08-09T16:12:27.862Z,61.6
2018-08-09T16:17:28.112Z,62.2
2018-08-09T16:22:27.445Z,62.3
2018-08-09T16:27:28.536Z,62.5
2018-08-09T16:32:28.606Z,63.0
2018-08-09T16:37:27.692Z,63.0
2018-08-09T16:42:29.141Z,63.0
2018-08-09T16:47:28.122Z,63.0
2018-08-09T16:52:27.186Z,63.2
2018-08-09T16:57:27.721Z,63.3
2018-08-09T17:02:28.398Z,63.1
2018-08-09T17:07:28.742Z,62.6
2018-08-09T17:12:27.552Z,62.4
2018-08-09T17:17:28.378Z,63.3
2018-08-09T17:22:27.904Z,62.6
2018-08-09T17:27:28.839Z,62.3
2018-08-09T17:32:27.957Z,62.2
2018-08-09T17:37:27.831Z,62.2
2018-08-09T17:42:28.248Z,59.8
2018-08-09T17:47:28.494Z,59.6
2018-08-09T17:52:27.522Z,59.3
2018-08-09T17:57:27.757Z,56.0
2018-08-09T18:02:28.570Z,58.4
2018-08-09T18:07:28.448Z,58.4
2018-08-09T18:12:27.974Z,62.8
2018-08-09T18:17:28.325Z,62.6
2018-08-09T18:22:28.702Z,62.6
2018-08-09T18:27:28.299Z,63.0
2018-08-09T18:32:28.728Z,63.2
2018-08-09T18:37:27.794Z,63.7
2018-08-09T18:42:29.631Z,64.0
2018-08-09T18:47:28.526Z,64.0
2018-08-09T18:52:27.993Z,64.0
2018-08-09T18:57:27.497Z,64.2
2018-08-09T19:02:28.464Z,64.3
2018-08-09T19:07:28.300Z,64.2
2018-08-09T19:12:28.188Z,64.2
2018-08-09T19:17:30.007Z,65.2
2018-08-09T19:22:28.100Z,64.5
2018-08-09T19:27:28.056Z,64.5
2018-08-09T19:32:30.474Z,64.4
2018-08-09T19:37:27.034Z,64.6
2018-08-09T19:42:27.514Z,64.5
2018-08-09T19:47:27.671Z,64.6
2018-08-09T19:52:27.241Z,64.3
2018-08-09T19:57:27.706Z,64.5
2018-08-09T20:02:28.204Z,64.8
2018-08-09T20:07:27.799Z,64.8
2018-08-09T20:12:27.697Z,64.5
2018-08-09T20:17:28.860Z,64.4
2018-08-09T20:22:27.624Z,64.4
2018-08-09T20:27:27.890Z,64.4
2018-08-09T20:32:28.727Z,64.4
2018-08-09T20:37:27.951Z,64.0
2018-08-09T20:42:27.885Z,64.2
2018-08-09T20:47:28.506Z,64.0
2018-08-09T20:52:27.193Z,64.2
2018-08-09T20:57:27.143Z,64.0
2018-08-09T21:02:27.568Z,64.1
2018-08-09T21:07:27.612Z,64.2
2018-08-09T21:12:27.961Z,64.1
2018-08-09T21:17:27.050Z,64.1
2018-08-09T21:22:27.367Z,64.2
2018-08-09T21:27:27.581Z,64.1
2018-08-09T21:32:28.297Z,64.8
2018-08-09T21:37:27.849Z,64.7
2018-08-09T21:42:28.542Z,64.8
2018-08-09T21:47:27.832Z,64.8
2018-08-09T21:52:28.198Z,64.5
2018-08-09T21:57:27.757Z,64.5
2018-08-09T22:02:28.070Z,64.3
2018-08-09T22:07:28.006Z,64.1
2018-08-09T22:12:28.373Z,64.0
2018-08-09T22:22:50.926Z,64.0
2018-08-09T22:27:48.173Z,64.1
2018-08-09T22:32:48.379Z,64.1
2018-08-09T22:37:49.372Z,64.1
2018-08-09T22:42:47.942Z,64.0
2018-08-09T22:47:48.210Z,64.4
2018-08-09T22:52:49.036Z,64.5
2018-08-09T22:57:48.339Z,64.7
2018-08-09T23:02:48.514Z,65.5
2018-08-09T23:07:48.811Z,66.1
2018-08-09T23:12:28.205Z,66.0
2018-08-09T23:17:28.341Z,66.0
2018-08-09T23:22:27.737Z,65.3
2018-08-09T23:27:28.541Z,66.5
2018-08-09T23:32:29.238Z,66.4
2018-08-09T23:37:28.490Z,66.1
2018-08-09T23:42:27.985Z,66.1
2018-08-09T23:47:27.527Z,66.7
2018-08-09T23:52:27.805Z,66.3
2018-08-09T23:57:28.273Z,67.3
